createdAt,value
2022-11-25T00:01:33.469Z,101040.66
2022-11-25T00:04:03.854Z,101038.94
2022-11-25T00:06:34.582Z,101032.88
2022-11-25T00:09:05.787Z,101027.69
2022-11-25T00:11:37.201Z,101025.97
2022-11-25T00:14:06.146Z,101029.47
2022-11-25T00:16:34.761Z,101022.53
2022-11-25T00:19:04.560Z,101021.69
2022-11-25T00:21:35.291Z,101025.22
2022-11-25T00:24:07.084Z,101018.25
2022-11-25T00:26:37.465Z,101020.03
2022-11-25T00:29:08.109Z,101012.22
2022-11-25T00:31:39.343Z,101006.13
2022-11-25T00:34:12.656Z,101008.78
2022-11-25T00:36:40.955Z,101007.03
2022-11-25T00:39:13.659Z,101005.28
2022-11-25T00:42:00.124Z,100999.22
2022-11-25T00:44:39.609Z,100998.38
2022-11-25T00:47:12.262Z,101004.47
2022-11-25T00:49:44.080Z,101006.25
2022-11-25T00:52:17.533Z,101006.28
2022-11-25T00:54:47.694Z,101000.22
2022-11-25T00:57:17.260Z,101007.13
2022-11-25T00:59:45.704Z,100999.34
2022-11-25T01:02:15.842Z,101003.69
2022-11-25T01:04:45.700Z,101007.19
2022-11-25T01:07:14.253Z,101000.22
2022-11-25T01:09:42.573Z,101002.84
2022-11-25T01:12:10.908Z,101011.59
2022-11-25T01:14:39.954Z,101009.81
2022-11-25T01:17:08.402Z,101008.06
2022-11-25T01:19:39.992Z,101003.75
2022-11-25T01:22:10.427Z,101008.09
2022-11-25T01:24:39.055Z,100997.66
2022-11-25T01:27:07.336Z,101004.66
2022-11-25T01:29:35.558Z,101001.22
2022-11-25T01:32:03.850Z,101004.72
2022-11-25T01:34:34.611Z,101006.44
2022-11-25T01:37:03.044Z,100999.44
2022-11-25T01:39:33.407Z,101006.38
2022-11-25T01:42:02.322Z,101005.53
2022-11-25T01:44:33.992Z,101007.22
2022-11-25T01:47:07.085Z,101009.78
2022-11-25T01:49:42.030Z,101001.03
2022-11-25T01:52:16.901Z,101006.25
2022-11-25T01:54:53.738Z,101002.75
2022-11-25T01:57:26.218Z,101005.34
2022-11-25T01:59:57.864Z,101000.22
2022-11-25T02:02:26.431Z,100991.53
2022-11-25T02:04:54.870Z,100997.63
2022-11-25T02:07:29.763Z,100986.31
2022-11-25T02:10:01.335Z,100990.63
2022-11-25T02:12:30.626Z,100986.28
2022-11-25T02:15:00.989Z,100990.66
2022-11-25T02:17:29.685Z,100990.69
2022-11-25T02:20:05.577Z,100994.22
2022-11-25T02:22:48.645Z,100989.00
2022-11-25T02:25:21.414Z,100989.94
2022-11-25T02:27:55.442Z,100996.94
2022-11-25T02:30:23.652Z,100995.22
2022-11-25T02:32:54.173Z,100991.75
2022-11-25T02:35:33.359Z,100995.22
2022-11-25T02:38:09.358Z,100995.22
2022-11-25T02:40:46.411Z,101003.94
2022-11-25T02:43:15.123Z,100992.63
2022-11-25T02:45:58.298Z,100993.47
2022-11-25T02:48:52.781Z,100994.31
2022-11-25T02:51:20.291Z,100989.97
2022-11-25T02:53:48.875Z,100978.59
2022-11-25T02:56:20.394Z,100992.56
2022-11-25T02:58:48.627Z,100989.03
2022-11-25T03:01:17.057Z,100996.03
2022-11-25T03:03:45.436Z,100984.72
2022-11-25T03:06:13.902Z,100991.66
2022-11-25T03:08:42.226Z,100990.81
2022-11-25T03:11:10.427Z,100988.19
2022-11-25T03:13:40.236Z,100995.16
2022-11-25T03:16:09.194Z,100989.09
2022-11-25T03:18:37.752Z,100987.41
2022-11-25T03:21:07.312Z,100993.53
2022-11-25T03:23:35.532Z,100991.78
2022-11-25T03:26:07.799Z,100997.88
2022-11-25T03:28:36.087Z,101003.97
2022-11-25T03:31:05.759Z,101006.59
2022-11-25T03:33:34.121Z,101002.28
2022-11-25T03:36:02.336Z,101005.78
2022-11-25T03:38:30.636Z,100994.47
2022-11-25T03:40:59.003Z,101003.19
2022-11-25T03:43:27.349Z,100999.69
2022-11-25T03:45:55.607Z,100995.34
2022-11-25T03:48:25.262Z,101000.56
2022-11-25T03:50:53.440Z,101003.22
2022-11-25T03:53:21.693Z,100998.00
2022-11-25T03:55:50.045Z,101000.63
2022-11-25T03:58:20.513Z,100998.91
2022-11-25T04:00:48.694Z,100991.97
2022-11-25T04:03:17.234Z,100992.78
2022-11-25T04:05:46.808Z,100994.56
2022-11-25T04:08:15.379Z,100991.97
2022-11-25T04:10:43.795Z,100985.84
2022-11-25T04:13:10.995Z,100995.44
2022-11-25T04:15:44.886Z,100991.97
2022-11-25T04:18:13.103Z,100988.44
2022-11-25T04:20:41.392Z,100994.50
2022-11-25T04:23:11.712Z,101010.16
2022-11-25T04:25:40.428Z,101003.22
2022-11-25T04:28:08.704Z,101004.09
2022-11-25T04:30:38.223Z,101012.81
2022-11-25T04:33:06.791Z,101011.94
2022-11-25T04:35:35.237Z,101024.19
2022-11-25T04:38:03.495Z,101018.97
2022-11-25T04:40:33.116Z,101029.44
2022-11-25T04:43:06.034Z,101030.31
2022-11-25T04:45:58.689Z,101021.63
2022-11-25T04:48:24.453Z,101024.25
2022-11-25T04:50:52.684Z,101024.28
2022-11-25T04:53:20.891Z,101028.63
2022-11-25T04:55:50.602Z,101028.63
2022-11-25T04:58:38.846Z,101030.41
2022-11-25T05:01:06.122Z,101025.19
2022-11-25T05:03:34.652Z,101026.97
2022-11-25T05:06:07.936Z,101026.13
2022-11-25T05:08:36.411Z,101030.50
2022-11-25T05:11:07.763Z,101037.50
2022-11-25T05:13:36.032Z,101027.91
2022-11-25T05:16:04.652Z,101019.19
2022-11-25T05:18:32.878Z,101018.28
2022-11-25T05:21:03.189Z,101012.16
2022-11-25T05:23:31.614Z,101016.44
2022-11-25T05:26:01.459Z,101010.31
2022-11-25T05:28:32.491Z,101016.38
2022-11-25T05:31:00.789Z,101029.44
2022-11-25T05:33:29.187Z,101025.94
2022-11-25T05:35:58.877Z,101029.44
2022-11-25T05:38:27.819Z,101042.44
2022-11-25T05:41:01.788Z,101033.72
2022-11-25T05:43:31.428Z,101038.06
2022-11-25T05:45:59.788Z,101045.00
2022-11-25T05:48:28.088Z,101053.75
2022-11-25T05:50:56.292Z,101053.75
2022-11-25T05:53:24.502Z,101059.00
2022-11-25T05:55:58.757Z,101055.53
2022-11-25T05:58:27.863Z,101064.28
2022-11-25T06:00:58.202Z,101059.97
2022-11-25T06:03:27.279Z,101068.69
2022-11-25T06:05:57.360Z,101067.84
2022-11-25T06:08:25.924Z,101067.84
2022-11-25T06:10:54.538Z,101072.25
2022-11-25T06:13:23.115Z,101062.69
2022-11-25T06:15:51.443Z,101072.31
2022-11-25T06:18:21.164Z,101074.94
2022-11-25T06:20:58.395Z,101074.94
2022-11-25T06:23:26.990Z,101070.59
2022-11-25T06:25:55.215Z,101078.44
2022-11-25T06:28:23.382Z,101076.72
2022-11-25T06:30:51.673Z,101083.72
2022-11-25T06:33:21.285Z,101088.97
2022-11-25T06:35:50.766Z,101095.97
2022-11-25T06:38:19.125Z,101100.34
2022-11-25T06:40:47.307Z,101097.75
2022-11-25T06:43:15.594Z,101099.50
2022-11-25T06:45:44.256Z,101110.00
2022-11-25T06:48:12.638Z,101106.53
2022-11-25T06:50:42.417Z,101114.38
2022-11-25T06:53:10.673Z,101122.25
2022-11-25T06:55:39.265Z,101122.28
2022-11-25T06:58:33.908Z,101122.28
2022-11-25T07:00:55.680Z,101125.84
2022-11-25T07:03:23.899Z,101127.59
2022-11-25T07:05:53.582Z,101129.38
2022-11-25T07:08:25.108Z,101133.72
2022-11-25T07:10:55.840Z,101135.47
2022-11-25T07:13:24.781Z,101140.69
2022-11-25T07:15:53.139Z,101139.81
2022-11-25T07:18:21.452Z,101139.81
2022-11-25T07:20:49.659Z,101142.44
2022-11-25T07:23:19.161Z,101146.81
2022-11-25T07:25:47.369Z,101145.06
2022-11-25T07:28:15.649Z,101148.50
2022-11-25T07:33:32.215Z,101149.31
2022-11-25T07:36:04.411Z,101163.19
2022-11-25T07:38:34.767Z,101160.53
2022-11-25T07:41:07.575Z,101167.50
2022-11-25T07:43:36.267Z,101172.72
2022-11-25T07:46:13.530Z,101176.22
2022-11-25T07:48:42.545Z,101175.41
2022-11-25T07:51:17.304Z,101189.38
2022-11-25T07:53:47.355Z,101185.00
2022-11-25T07:56:17.702Z,101191.13
2022-11-25T07:58:46.691Z,101194.66
2022-11-25T08:01:17.101Z,101188.59
2022-11-25T08:03:47.782Z,101197.28
2022-11-25T08:06:19.943Z,101202.47
2022-11-25T08:08:52.831Z,101203.31
2022-11-25T08:11:24.133Z,101212.91
2022-11-25T08:13:52.485Z,101219.00
2022-11-25T08:16:23.424Z,101218.13
2022-11-25T08:18:51.800Z,101228.56
2022-11-25T08:21:21.012Z,101221.56
2022-11-25T08:23:52.548Z,101225.88
2022-11-25T08:26:24.177Z,101223.25
2022-11-25T08:28:52.647Z,101221.47
2022-11-25T08:31:23.859Z,101217.13
2022-11-25T08:33:53.641Z,101224.09
2022-11-25T08:36:22.435Z,101231.09
2022-11-25T08:38:57.520Z,101236.31
2022-11-25T08:41:30.096Z,101233.72
2022-11-25T08:43:59.873Z,101231.09
2022-11-25T08:46:33.600Z,101238.06
2022-11-25T08:49:02.461Z,101245.91
2022-11-25T08:51:35.694Z,101233.66
2022-11-25T08:54:06.427Z,101249.38
2022-11-25T08:56:34.801Z,101240.69
2022-11-25T08:59:03.070Z,101244.16
2022-11-25T09:01:31.462Z,101243.31
2022-11-25T09:04:00.427Z,101248.59
2022-11-25T09:06:30.431Z,101255.59
2022-11-25T09:09:01.722Z,101259.09
2022-11-25T09:11:31.522Z,101265.31
2022-11-25T09:13:59.864Z,101272.31
2022-11-25T09:16:28.509Z,101267.19
2022-11-25T09:18:59.998Z,101275.16
2022-11-25T09:21:28.366Z,101271.84
2022-11-25T09:23:56.657Z,101283.31
2022-11-25T09:26:28.104Z,101279.00
2022-11-25T09:28:57.684Z,101285.94
2022-11-25T09:31:26.318Z,101285.06
2022-11-25T09:33:54.809Z,101290.25
2022-11-25T09:36:23.668Z,101293.78
2022-11-25T09:38:52.629Z,101289.44
2022-11-25T09:42:02.624Z,101296.41
2022-11-25T09:45:05.793Z,101299.03
2022-11-25T09:47:47.619Z,101303.38
2022-11-25T09:50:34.399Z,101309.50
2022-11-25T09:53:11.048Z,101322.78
2022-11-25T09:55:44.145Z,101319.47
2022-11-25T09:58:26.977Z,101329.16
2022-11-25T10:00:56.717Z,101317.78
2022-11-25T10:03:35.684Z,101321.25
2022-11-25T10:06:08.558Z,101329.09
2022-11-25T10:08:41.461Z,101320.41
2022-11-25T10:11:23.516Z,101321.31
2022-11-25T10:13:59.271Z,101324.84
2022-11-25T10:16:37.411Z,101332.72
2022-11-25T10:19:24.415Z,101334.53
2022-11-25T10:21:53.535Z,101339.81
2022-11-25T10:24:23.066Z,101336.38
2022-11-25T10:26:59.203Z,101346.09
2022-11-25T10:29:32.318Z,101345.25
2022-11-25T10:32:24.201Z,101344.41
2022-11-25T10:34:55.912Z,101350.59
2022-11-25T10:37:30.872Z,101352.38
2022-11-25T10:39:59.115Z,101346.34
2022-11-25T10:42:29.838Z,101352.50
2022-11-25T10:44:57.967Z,101353.41
2022-11-25T10:47:42.365Z,101361.34
2022-11-25T10:50:18.917Z,101360.50
2022-11-25T10:52:57.236Z,101363.16
2022-11-25T10:55:28.052Z,101369.31
2022-11-25T10:57:57.015Z,101361.50
2022-11-25T11:00:34.949Z,101366.78
2022-11-25T11:03:17.237Z,101377.31
2022-11-25T11:05:48.792Z,101381.84
2022-11-25T11:08:23.019Z,101390.63
2022-11-25T11:11:18.029Z,101390.72
2022-11-25T11:13:47.496Z,101385.53
2022-11-25T11:16:31.946Z,101395.22
2022-11-25T11:19:02.056Z,101401.44
2022-11-25T11:21:33.874Z,101398.06
2022-11-25T11:24:03.815Z,101415.69
2022-11-25T11:26:34.735Z,101403.56
2022-11-25T11:29:11.220Z,101414.16
2022-11-25T11:31:48.403Z,101408.09
2022-11-25T11:34:49.064Z,101414.19
2022-11-25T11:37:40.772Z,101415.97
2022-11-25T11:40:43.271Z,101420.41
2022-11-25T11:43:29.395Z,101417.81
2022-11-25T11:46:16.161Z,101422.19
2022-11-25T11:48:55.800Z,101429.13
2022-11-25T11:51:33.533Z,101434.38
2022-11-25T11:54:09.571Z,101437.00
2022-11-25T11:56:43.198Z,101434.44
2022-11-25T11:59:46.234Z,101443.19
2022-11-25T12:02:31.214Z,101437.94
2022-11-25T12:05:13.362Z,101446.66
2022-11-25T12:07:54.823Z,101446.63
2022-11-25T12:10:28.762Z,101451.06
2022-11-25T12:13:09.037Z,101451.16
2022-11-25T12:15:46.944Z,101452.97
2022-11-25T12:18:32.071Z,101450.34
2022-11-25T12:21:05.262Z,101452.13
2022-11-25T12:23:46.513Z,101458.28
2022-11-25T12:26:24.479Z,101464.44
2022-11-25T12:29:00.920Z,101463.63
2022-11-25T12:31:34.129Z,101464.50
2022-11-25T12:34:10.747Z,101472.44
2022-11-25T12:36:41.720Z,101476.78
2022-11-25T12:39:25.043Z,101481.19
2022-11-25T12:41:57.647Z,101494.31
2022-11-25T12:44:33.388Z,101485.53
2022-11-25T12:47:01.870Z,101499.53
2022-11-25T12:49:33.399Z,101500.38
2022-11-25T12:52:44.281Z,101488.09
2022-11-25T12:55:19.716Z,101501.34
2022-11-25T12:58:24.867Z,101491.81
2022-11-25T13:01:36.426Z,101499.72
2022-11-25T13:04:37.774Z,101503.22
2022-11-25T13:07:31.263Z,101498.78
2022-11-25T13:10:44.243Z,101508.47
2022-11-25T13:13:38.983Z,101509.28
2022-11-25T13:16:10.907Z,101517.25
2022-11-25T13:18:44.274Z,101527.81
2022-11-25T13:21:20.997Z,101520.81
2022-11-25T13:23:52.560Z,101522.56
2022-11-25T13:26:50.277Z,101524.28
2022-11-25T13:30:03.016Z,101536.44
2022-11-25T13:32:37.875Z,101531.13
2022-11-25T13:35:51.543Z,101536.31
2022-11-25T13:39:00.987Z,101539.75
2022-11-25T13:41:43.475Z,101544.06
2022-11-25T13:44:28.379Z,101551.91
2022-11-25T13:46:59.625Z,101558.00
2022-11-25T13:49:34.048Z,101557.13
2022-11-25T13:52:10.315Z,101564.13
2022-11-25T13:54:45.668Z,101562.34
2022-11-25T13:57:29.407Z,101565.00
2022-11-25T14:00:00.960Z,101577.28
2022-11-25T14:02:45.195Z,101578.16
2022-11-25T14:05:43.324Z,101574.59
2022-11-25T14:08:23.572Z,101577.22
2022-11-25T14:11:14.217Z,101585.16
2022-11-25T14:14:04.089Z,101585.19
2022-11-25T14:16:52.295Z,101593.19
2022-11-25T14:20:08.754Z,101594.16
2022-11-25T14:23:02.617Z,101595.09
2022-11-25T14:25:46.069Z,101595.97
2022-11-25T14:28:28.449Z,101604.72
2022-11-25T14:31:02.036Z,101607.34
2022-11-25T14:33:38.213Z,101606.44
2022-11-25T14:36:13.704Z,101615.19
2022-11-25T14:38:50.494Z,101610.75
2022-11-25T14:41:23.768Z,101615.06
2022-11-25T14:43:58.265Z,101621.16
2022-11-25T14:46:27.040Z,101628.09
2022-11-25T14:48:57.488Z,101629.81
2022-11-25T14:51:35.012Z,101637.66
2022-11-25T14:54:05.020Z,101641.16
2022-11-25T14:56:37.287Z,101642.88
2022-11-25T14:59:09.292Z,101649.88
2022-11-25T15:01:39.260Z,101657.72
2022-11-25T15:04:19.623Z,101662.91
2022-11-25T15:06:55.074Z,101672.47
2022-11-25T15:09:26.839Z,101682.88
2022-11-25T15:11:59.146Z,101684.53
2022-11-25T15:14:29.817Z,101688.78
2022-11-25T15:16:59.779Z,101691.25
2022-11-25T15:19:34.227Z,101693.75
2022-11-25T15:22:24.349Z,101698.00
2022-11-25T15:24:56.197Z,101703.06
2022-11-25T15:27:26.974Z,101709.09
2022-11-25T15:29:58.481Z,101712.44
2022-11-25T15:32:30.207Z,101721.91
2022-11-25T15:35:02.031Z,101726.13
2022-11-25T15:37:31.848Z,101730.34
2022-11-25T15:40:36.973Z,101737.16
2022-11-25T15:43:08.653Z,101730.88
2022-11-25T15:45:47.819Z,101739.50
2022-11-25T15:48:22.046Z,101744.59
2022-11-25T15:50:50.823Z,101740.91
2022-11-25T15:53:33.140Z,101760.78
2022-11-25T15:56:03.301Z,101763.16
2022-11-25T15:58:32.933Z,101762.09
2022-11-25T16:01:05.865Z,101774.09
2022-11-25T16:03:36.796Z,101778.31
2022-11-25T16:06:22.965Z,101782.50
2022-11-25T16:09:00.295Z,101788.44
2022-11-25T16:11:33.508Z,101793.50
2022-11-25T16:14:18.792Z,101793.34
2022-11-25T16:16:48.031Z,101806.28
2022-11-25T16:19:21.812Z,101805.28
2022-11-25T16:21:58.140Z,101819.13
2022-11-25T16:24:48.297Z,101817.13
2022-11-25T16:27:23.854Z,101827.53
2022-11-25T16:29:56.859Z,101829.13
2022-11-25T16:32:29.328Z,101821.13
2022-11-25T16:35:07.788Z,101832.28
2022-11-25T16:37:36.180Z,101835.75
2022-11-25T16:40:07.785Z,101838.38
2022-11-25T16:42:35.999Z,101837.44
2022-11-25T16:45:04.582Z,101854.00
2022-11-25T16:47:32.865Z,101854.00
2022-11-25T16:50:01.156Z,101857.47
2022-11-25T16:52:29.445Z,101867.00
2022-11-25T16:54:58.989Z,101867.88
2022-11-25T16:57:28.664Z,101871.25
2022-11-25T17:00:00.934Z,101882.63
2022-11-25T17:02:29.365Z,101873.88
2022-11-25T17:05:01.696Z,101881.69
2022-11-25T17:07:33.167Z,101880.78
2022-11-25T17:10:01.839Z,101881.59
2022-11-25T17:12:35.340Z,101889.44
2022-11-25T17:15:07.502Z,101887.63
2022-11-25T17:17:36.647Z,101889.25
2022-11-25T17:20:06.160Z,101902.25
2022-11-25T17:22:38.924Z,101909.28
2022-11-25T17:25:08.445Z,101912.78
2022-11-25T17:27:38.535Z,101912.72
2022-11-25T17:30:09.996Z,101916.19
2022-11-25T17:32:38.223Z,101919.63
2022-11-25T17:35:19.050Z,101926.53
2022-11-25T17:37:47.944Z,101931.75
2022-11-25T17:40:17.202Z,101936.91
2022-11-25T17:42:49.929Z,101942.19
2022-11-25T17:45:21.001Z,101956.13
2022-11-25T17:47:49.711Z,101957.81
2022-11-25T17:50:20.688Z,101961.19
2022-11-25T17:52:49.436Z,101959.44
2022-11-25T17:55:19.725Z,101962.88
2022-11-25T17:57:50.617Z,101975.94
2022-11-25T18:00:21.881Z,101977.59
2022-11-25T18:02:50.830Z,101981.06
2022-11-25T18:05:21.640Z,101994.06
2022-11-25T18:07:50.648Z,101995.69
2022-11-25T18:10:22.240Z,101994.75
2022-11-25T18:12:55.472Z,102000.78
2022-11-25T18:15:26.434Z,102004.19
2022-11-25T18:18:02.034Z,101993.59
2022-11-25T18:20:32.878Z,102000.50
2022-11-25T18:23:01.785Z,102016.13
2022-11-25T18:25:33.366Z,102013.44
2022-11-25T18:28:05.169Z,102021.19
2022-11-25T18:30:36.020Z,102022.06
2022-11-25T18:33:06.280Z,102029.84
2022-11-25T18:35:36.754Z,102038.53
2022-11-25T18:38:05.788Z,102043.75
2022-11-25T18:40:36.530Z,102042.94
2022-11-25T18:43:07.325Z,102044.69
2022-11-25T18:45:38.243Z,102056.81
2022-11-25T18:48:16.192Z,102061.09
2022-11-25T18:50:46.003Z,102059.34
2022-11-25T18:53:14.364Z,102064.66
2022-11-25T18:55:43.351Z,102069.94
2022-11-25T18:58:18.931Z,102075.09
2022-11-25T19:00:49.463Z,102080.31
2022-11-25T19:03:20.789Z,102075.88
2022-11-25T19:05:49.948Z,102088.84
2022-11-25T19:08:18.619Z,102085.28
2022-11-25T19:10:48.777Z,102090.44
2022-11-25T19:13:21.993Z,102102.47
2022-11-25T19:15:53.425Z,102098.03
2022-11-25T19:18:26.753Z,102098.84
2022-11-25T19:20:55.126Z,102114.44
2022-11-25T19:23:26.192Z,102117.91
2022-11-25T19:25:57.403Z,102125.59
2022-11-25T19:28:28.344Z,102125.47
2022-11-25T19:31:01.225Z,102126.19
2022-11-25T19:33:34.123Z,102132.19
2022-11-25T19:36:03.309Z,102129.44
2022-11-25T19:38:32.870Z,102131.00
2022-11-25T19:41:01.498Z,102136.94
2022-11-25T19:43:31.224Z,102143.00
2022-11-25T19:46:00.757Z,102144.69
2022-11-25T19:48:34.942Z,102151.56
2022-11-25T19:51:04.719Z,102154.06
2022-11-25T19:53:34.352Z,102160.00
2022-11-25T19:56:04.642Z,102163.50
2022-11-25T19:58:34.647Z,102164.28
2022-11-25T20:01:05.789Z,102166.81
2022-11-25T20:03:34.882Z,102172.81
2022-11-25T20:06:03.131Z,102173.59
2022-11-25T20:08:31.390Z,102177.88
2022-11-25T20:10:59.789Z,102171.78
2022-11-25T20:13:28.032Z,102178.53
2022-11-25T20:15:59.767Z,102183.63
2022-11-25T20:18:29.093Z,102185.19
2022-11-25T20:21:02.671Z,102181.53
2022-11-25T20:23:40.075Z,102178.00
2022-11-25T20:26:17.231Z,102184.72
2022-11-25T20:28:45.484Z,102189.78
2022-11-25T20:31:15.983Z,102194.03
2022-11-25T20:33:44.281Z,102201.81
2022-11-25T20:36:16.937Z,102205.91
2022-11-25T20:38:52.773Z,102209.88
2022-11-25T20:41:27.288Z,102216.63
2022-11-25T20:43:57.614Z,102213.06
2022-11-25T20:46:30.142Z,102220.84
2022-11-25T20:49:01.653Z,102225.13
2022-11-25T20:51:30.542Z,102220.69
2022-11-25T20:54:01.693Z,102224.91
2022-11-25T20:56:31.124Z,102234.22
2022-11-25T20:58:59.348Z,102238.38
2022-11-25T21:01:28.930Z,102235.72
2022-11-25T21:03:57.332Z,102243.34
2022-11-25T21:06:28.835Z,102244.88
2022-11-25T21:09:01.014Z,102251.63
2022-11-25T21:11:32.972Z,102253.34
2022-11-25T21:14:01.697Z,102256.84
2022-11-25T21:16:31.362Z,102254.31
2022-11-25T21:18:59.692Z,102258.66
2022-11-25T21:21:33.341Z,102260.25
2022-11-25T21:24:09.149Z,102265.47
2022-11-25T21:26:37.438Z,102264.66
2022-11-25T21:29:05.649Z,102266.38
2022-11-25T21:31:35.352Z,102264.66
2022-11-25T21:34:06.398Z,102279.44
2022-11-25T21:36:34.595Z,102279.44
2022-11-25T21:39:06.834Z,102281.09
2022-11-25T21:41:35.484Z,102287.13
2022-11-25T21:44:07.417Z,102286.06
2022-11-25T21:46:37.124Z,102289.47
2022-11-25T21:49:11.797Z,102293.81
2022-11-25T21:51:40.029Z,102301.53
2022-11-25T21:54:08.236Z,102311.94
2022-11-25T21:56:36.655Z,102313.69
2022-11-25T21:59:08.143Z,102318.75
2022-11-25T22:01:37.772Z,102316.19
2022-11-25T22:04:06.741Z,102323.13
2022-11-25T22:06:35.302Z,102323.09
2022-11-25T22:09:03.562Z,102321.22
2022-11-25T22:11:34.288Z,102326.50
2022-11-25T22:14:06.006Z,102326.38
2022-11-25T22:16:37.619Z,102339.41
2022-11-25T22:19:06.078Z,102330.69
2022-11-25T22:21:34.414Z,102334.94
2022-11-25T22:24:02.677Z,102340.91
2022-11-25T22:26:35.322Z,102346.94
2022-11-25T22:29:04.664Z,102345.97
2022-11-25T22:31:33.023Z,102348.56
2022-11-25T22:34:02.653Z,102354.63
2022-11-25T22:36:35.012Z,102352.78
2022-11-25T22:39:15.281Z,102351.81
2022-11-25T22:41:46.105Z,102348.25
2022-11-25T22:44:23.269Z,102359.41
2022-11-25T22:46:52.225Z,102361.81
2022-11-25T22:49:31.104Z,102356.25
2022-11-25T22:51:59.998Z,102364.63
2022-11-25T22:54:28.314Z,102369.59
2022-11-25T22:56:56.953Z,102369.47
2022-11-25T22:59:25.219Z,102368.44
2022-11-25T23:01:53.644Z,102374.47
2022-11-25T23:04:23.539Z,102372.59
2022-11-25T23:06:53.019Z,102379.72
2022-11-25T23:09:21.413Z,102393.69
2022-11-25T23:11:50.089Z,102385.00
2022-11-25T23:14:18.280Z,102391.03
2022-11-25T23:16:46.703Z,102390.09
2022-11-25T23:19:17.696Z,102394.31
2022-11-25T23:21:47.374Z,102390.75
2022-11-25T23:24:17.778Z,102394.16
2022-11-25T23:26:46.477Z,102397.31
2022-11-25T23:29:14.729Z,102405.78
2022-11-25T23:31:43.084Z,102409.94
2022-11-25T23:34:14.493Z,102409.19
2022-11-25T23:36:47.862Z,102410.06
2022-11-25T23:39:21.036Z,102409.97
2022-11-25T23:41:50.054Z,102414.25
2022-11-25T23:44:25.643Z,102410.59
2022-11-25T23:46:56.559Z,102418.41
2022-11-25T23:49:29.366Z,102420.91
2022-11-25T23:52:07.265Z,102415.56
2022-11-25T23:54:40.954Z,102416.31
2022-11-25T23:57:15.451Z,102422.09
2022-11-25T23:59:44.085Z,102424.47
